sensor_id;sensor_type;location;lat;lon;timestamp;P1;durP1;ratioP1;P2;durP2;ratioP2
46953;SDS011;32707;43.886;12.874;2022-07-05T00:02:06;17.42;;;2.33;;
46953;SDS011;32707;43.886;12.874;2022-07-05T00:04:32;12.73;;;2.38;;
46953;SDS011;32707;43.886;12.874;2022-07-05T00:06:57;19.35;;;1.90;;
46953;SDS011;32707;43.886;12.874;2022-07-05T00:09:42;15.13;;;2.23;;
46953;SDS011;32707;43.886;12.874;2022-07-05T00:12:07;21.95;;;2.10;;
46953;SDS011;32707;43.886;12.874;2022-07-05T00:14:33;30.70;;;2.67;;
46953;SDS011;32707;43.886;12.874;2022-07-05T00:16:59;19.65;;;3.60;;
46953;SDS011;32707;43.886;12.874;2022-07-05T00:19:24;15.32;;;2.63;;
46953;SDS011;32707;43.886;12.874;2022-07-05T00:21:50;6.70;;;1.60;;
46953;SDS011;32707;43.886;12.874;2022-07-05T00:24:15;12.75;;;2.58;;
46953;SDS011;32707;43.886;12.874;2022-07-05T00:26:40;14.32;;;1.75;;
46953;SDS011;32707;43.886;12.874;2022-07-05T00:29:06;29.92;;;2.90;;
46953;SDS011;32707;43.886;12.874;2022-07-05T00:31:31;13.20;;;2.25;;
46953;SDS011;32707;43.886;12.874;2022-07-05T00:33:57;31.65;;;2.38;;
46953;SDS011;32707;43.886;12.874;2022-07-05T00:36:22;12.05;;;1.92;;
46953;SDS011;32707;43.886;12.874;2022-07-05T00:38:48;24.98;;;3.28;;
46953;SDS011;32707;43.886;12.874;2022-07-05T00:41:13;11.75;;;2.70;;
46953;SDS011;32707;43.886;12.874;2022-07-05T00:44:00;26.83;;;2.58;;
46953;SDS011;32707;43.886;12.874;2022-07-05T00:46:29;11.80;;;2.03;;
46953;SDS011;32707;43.886;12.874;2022-07-05T00:48:56;23.17;;;2.33;;
46953;SDS011;32707;43.886;12.874;2022-07-05T00:51:22;15.93;;;2.22;;
46953;SDS011;32707;43.886;12.874;2022-07-05T00:53:48;32.72;;;2.70;;
46953;SDS011;32707;43.886;12.874;2022-07-05T00:56:14;13.73;;;2.38;;
46953;SDS011;32707;43.886;12.874;2022-07-05T00:58:40;10.23;;;2.03;;
46953;SDS011;32707;43.886;12.874;2022-07-05T01:01:06;15.13;;;2.05;;
46953;SDS011;32707;43.886;12.874;2022-07-05T01:03:34;26.55;;;2.08;;
46953;SDS011;32707;43.886;12.874;2022-07-05T01:06:04;14.48;;;1.90;;
46953;SDS011;32707;43.886;12.874;2022-07-05T01:08:32;18.88;;;2.35;;
46953;SDS011;32707;43.886;12.874;2022-07-05T01:11:00;4.80;;;1.58;;
46953;SDS011;32707;43.886;12.874;2022-07-05T01:13:26;11.73;;;2.25;;
46953;SDS011;32707;43.886;12.874;2022-07-05T01:15:52;19.17;;;2.50;;
46953;SDS011;32707;43.886;12.874;2022-07-05T01:18:19;11.50;;;2.90;;
46953;SDS011;32707;43.886;12.874;2022-07-05T01:20:47;7.90;;;2.72;;
46953;SDS011;32707;43.886;12.874;2022-07-05T01:23:16;15.25;;;1.77;;
46953;SDS011;32707;43.886;12.874;2022-07-05T01:25:43;13.45;;;1.73;;
46953;SDS011;32707;43.886;12.874;2022-07-05T01:28:09;19.23;;;3.03;;
46953;SDS011;32707;43.886;12.874;2022-07-05T01:30:35;14.18;;;1.70;;
46953;SDS011;32707;43.886;12.874;2022-07-05T01:33:01;7.72;;;1.60;;
46953;SDS011;32707;43.886;12.874;2022-07-05T01:35:27;15.23;;;2.13;;
46953;SDS011;32707;43.886;12.874;2022-07-05T01:37:53;6.70;;;1.98;;
46953;SDS011;32707;43.886;12.874;2022-07-05T01:40:18;16.67;;;2.45;;
46953;SDS011;32707;43.886;12.874;2022-07-05T01:42:45;13.55;;;2.20;;
46953;SDS011;32707;43.886;12.874;2022-07-05T01:45:11;28.25;;;3.00;;
46953;SDS011;32707;43.886;12.874;2022-07-05T01:47:38;31.98;;;2.22;;
46953;SDS011;32707;43.886;12.874;2022-07-05T01:50:09;26.00;;;1.92;;
46953;SDS011;32707;43.886;12.874;2022-07-05T01:52:38;14.85;;;2.33;;
46953;SDS011;32707;43.886;12.874;2022-07-05T01:55:07;19.60;;;2.03;;
46953;SDS011;32707;43.886;12.874;2022-07-05T01:57:35;12.60;;;1.65;;
46953;SDS011;32707;43.886;12.874;2022-07-05T02:00:01;6.05;;;2.08;;
46953;SDS011;32707;43.886;12.874;2022-07-05T02:02:27;13.85;;;2.97;;
46953;SDS011;32707;43.886;12.874;2022-07-05T02:04:52;10.32;;;1.90;;
46953;SDS011;32707;43.886;12.874;2022-07-05T02:07:18;10.27;;;1.88;;
46953;SDS011;32707;43.886;12.874;2022-07-05T02:09:43;20.42;;;2.13;;
46953;SDS011;32707;43.886;12.874;2022-07-05T02:12:09;5.72;;;1.98;;
46953;SDS011;32707;43.886;12.874;2022-07-05T02:14:35;11.90;;;2.00;;
46953;SDS011;32707;43.886;12.874;2022-07-05T02:17:00;14.15;;;1.75;;
46953;SDS011;32707;43.886;12.874;2022-07-05T02:19:26;16.73;;;2.72;;
46953;SDS011;32707;43.886;12.874;2022-07-05T02:21:51;31.55;;;2.55;;
46953;SDS011;32707;43.886;12.874;2022-07-05T02:24:17;14.50;;;1.73;;
46953;SDS011;32707;43.886;12.874;2022-07-05T02:26:42;22.95;;;2.30;;
46953;SDS011;32707;43.886;12.874;2022-07-05T02:29:08;17.20;;;1.80;;
46953;SDS011;32707;43.886;12.874;2022-07-05T02:31:33;7.95;;;1.52;;
46953;SDS011;32707;43.886;12.874;2022-07-05T02:33:59;2.53;;;1.63;;
46953;SDS011;32707;43.886;12.874;2022-07-05T02:36:25;8.20;;;1.95;;
46953;SDS011;32707;43.886;12.874;2022-07-05T02:38:51;18.33;;;2.30;;
46953;SDS011;32707;43.886;12.874;2022-07-05T02:41:16;20.48;;;2.08;;
46953;SDS011;32707;43.886;12.874;2022-07-05T02:43:42;17.88;;;2.80;;
46953;SDS011;32707;43.886;12.874;2022-07-05T02:46:08;5.68;;;1.92;;
46953;SDS011;32707;43.886;12.874;2022-07-05T02:48:34;15.60;;;2.08;;
46953;SDS011;32707;43.886;12.874;2022-07-05T02:51:00;7.63;;;2.28;;
46953;SDS011;32707;43.886;12.874;2022-07-05T02:53:29;8.65;;;2.28;;
46953;SDS011;32707;43.886;12.874;2022-07-05T02:55:56;11.57;;;1.65;;
46953;SDS011;32707;43.886;12.874;2022-07-05T02:58:21;13.48;;;1.70;;
46953;SDS011;32707;43.886;12.874;2022-07-05T03:00:47;11.10;;;2.00;;
46953;SDS011;32707;43.886;12.874;2022-07-05T03:03:14;11.65;;;1.98;;
46953;SDS011;32707;43.886;12.874;2022-07-05T03:05:43;8.38;;;1.60;;
46953;SDS011;32707;43.886;12.874;2022-07-05T03:08:09;9.40;;;1.73;;
46953;SDS011;32707;43.886;12.874;2022-07-05T03:10:34;6.40;;;1.50;;
46953;SDS011;32707;43.886;12.874;2022-07-05T03:13:01;7.82;;;1.77;;
46953;SDS011;32707;43.886;12.874;2022-07-05T03:15:27;16.00;;;1.77;;
46953;SDS011;32707;43.886;12.874;2022-07-05T03:17:52;15.77;;;1.88;;
46953;SDS011;32707;43.886;12.874;2022-07-05T03:20:18;7.03;;;2.40;;
46953;SDS011;32707;43.886;12.874;2022-07-05T03:22:43;8.32;;;1.75;;
46953;SDS011;32707;43.886;12.874;2022-07-05T03:25:09;6.53;;;1.75;;
46953;SDS011;32707;43.886;12.874;2022-07-05T03:27:34;12.10;;;1.95;;
46953;SDS011;32707;43.886;12.874;2022-07-05T03:30:00;8.50;;;1.67;;
46953;SDS011;32707;43.886;12.874;2022-07-05T03:32:26;5.20;;;2.17;;
46953;SDS011;32707;43.886;12.874;2022-07-05T03:34:51;13.75;;;2.00;;
46953;SDS011;32707;43.886;12.874;2022-07-05T03:37:17;10.77;;;2.05;;
46953;SDS011;32707;43.886;12.874;2022-07-05T03:39:42;4.05;;;1.80;;
46953;SDS011;32707;43.886;12.874;2022-07-05T03:42:08;9.63;;;2.35;;
46953;SDS011;32707;43.886;12.874;2022-07-05T03:44:33;6.88;;;1.65;;
46953;SDS011;32707;43.886;12.874;2022-07-05T03:46:59;11.27;;;2.20;;
46953;SDS011;32707;43.886;12.874;2022-07-05T03:49:24;18.88;;;1.67;;
46953;SDS011;32707;43.886;12.874;2022-07-05T03:51:51;14.10;;;2.00;;
46953;SDS011;32707;43.886;12.874;2022-07-05T03:54:16;11.45;;;2.38;;
46953;SDS011;32707;43.886;12.874;2022-07-05T03:56:42;32.63;;;2.67;;
46953;SDS011;32707;43.886;12.874;2022-07-05T03:59:08;11.70;;;2.22;;
46953;SDS011;32707;43.886;12.874;2022-07-05T04:01:33;18.73;;;2.88;;
46953;SDS011;32707;43.886;12.874;2022-07-05T04:03:59;15.88;;;2.42;;
46953;SDS011;32707;43.886;12.874;2022-07-05T04:06:24;8.90;;;2.50;;
46953;SDS011;32707;43.886;12.874;2022-07-05T04:08:50;11.43;;;2.20;;
46953;SDS011;32707;43.886;12.874;2022-07-05T04:11:16;9.85;;;1.90;;
46953;SDS011;32707;43.886;12.874;2022-07-05T04:13:42;8.77;;;2.40;;
46953;SDS011;32707;43.886;12.874;2022-07-05T04:16:08;8.60;;;1.98;;
46953;SDS011;32707;43.886;12.874;2022-07-05T04:18:34;14.82;;;2.75;;
46953;SDS011;32707;43.886;12.874;2022-07-05T04:21:00;6.53;;;1.75;;
46953;SDS011;32707;43.886;12.874;2022-07-05T04:23:27;7.70;;;1.90;;
46953;SDS011;32707;43.886;12.874;2022-07-05T04:25:53;6.80;;;1.42;;
46953;SDS011;32707;43.886;12.874;2022-07-05T04:28:19;10.18;;;2.22;;
46953;SDS011;32707;43.886;12.874;2022-07-05T04:30:45;3.53;;;2.08;;
46953;SDS011;32707;43.886;12.874;2022-07-05T04:33:11;7.15;;;1.60;;
46953;SDS011;32707;43.886;12.874;2022-07-05T04:35:36;15.93;;;1.98;;
46953;SDS011;32707;43.886;12.874;2022-07-05T04:38:02;17.25;;;1.83;;
46953;SDS011;32707;43.886;12.874;2022-07-05T04:40:28;10.93;;;1.95;;
46953;SDS011;32707;43.886;12.874;2022-07-05T04:42:53;7.15;;;1.65;;
46953;SDS011;32707;43.886;12.874;2022-07-05T04:45:19;6.90;;;1.75;;
46953;SDS011;32707;43.886;12.874;2022-07-05T04:47:44;5.13;;;2.05;;
46953;SDS011;32707;43.886;12.874;2022-07-05T04:50:10;15.50;;;2.40;;
46953;SDS011;32707;43.886;12.874;2022-07-05T04:52:35;5.20;;;2.17;;
46953;SDS011;32707;43.886;12.874;2022-07-05T04:55:01;11.88;;;2.20;;
46953;SDS011;32707;43.886;12.874;2022-07-05T04:57:26;9.73;;;2.25;;
46953;SDS011;32707;43.886;12.874;2022-07-05T05:00:00;10.97;;;1.80;;
46953;SDS011;32707;43.886;12.874;2022-07-05T05:02:26;10.85;;;2.50;;
46953;SDS011;32707;43.886;12.874;2022-07-05T05:04:51;5.32;;;2.10;;
46953;SDS011;32707;43.886;12.874;2022-07-05T05:07:19;11.57;;;2.13;;
46953;SDS011;32707;43.886;12.874;2022-07-05T05:09:45;15.30;;;2.08;;
46953;SDS011;32707;43.886;12.874;2022-07-05T05:12:10;10.23;;;2.35;;
46953;SDS011;32707;43.886;12.874;2022-07-05T05:14:36;10.10;;;2.83;;
46953;SDS011;32707;43.886;12.874;2022-07-05T05:17:01;12.43;;;2.13;;
46953;SDS011;32707;43.886;12.874;2022-07-05T05:19:27;7.60;;;1.80;;
46953;SDS011;32707;43.886;12.874;2022-07-05T05:21:52;10.93;;;2.63;;
46953;SDS011;32707;43.886;12.874;2022-07-05T05:24:18;10.02;;;1.98;;
46953;SDS011;32707;43.886;12.874;2022-07-05T05:26:43;7.50;;;2.15;;
46953;SDS011;32707;43.886;12.874;2022-07-05T05:29:09;10.13;;;2.08;;
46953;SDS011;32707;43.886;12.874;2022-07-05T05:31:34;8.88;;;2.65;;
46953;SDS011;32707;43.886;12.874;2022-07-05T05:34:00;24.80;;;3.25;;
46953;SDS011;32707;43.886;12.874;2022-07-05T05:36:25;10.30;;;2.58;;
46953;SDS011;32707;43.886;12.874;2022-07-05T05:38:53;12.18;;;2.25;;
46953;SDS011;32707;43.886;12.874;2022-07-05T05:41:19;6.95;;;2.22;;
46953;SDS011;32707;43.886;12.874;2022-07-05T05:43:44;3.65;;;2.28;;
46953;SDS011;32707;43.886;12.874;2022-07-05T05:46:10;16.38;;;2.60;;
46953;SDS011;32707;43.886;12.874;2022-07-05T05:48:35;12.45;;;3.15;;
46953;SDS011;32707;43.886;12.874;2022-07-05T05:51:04;3.60;;;1.83;;
46953;SDS011;32707;43.886;12.874;2022-07-05T05:53:30;8.73;;;2.10;;
46953;SDS011;32707;43.886;12.874;2022-07-05T05:55:55;7.00;;;2.30;;
46953;SDS011;32707;43.886;12.874;2022-07-05T05:58:21;3.70;;;1.50;;
46953;SDS011;32707;43.886;12.874;2022-07-05T06:00:48;1.60;;;1.48;;
46953;SDS011;32707;43.886;12.874;2022-07-05T06:03:17;4.85;;;1.70;;
46953;SDS011;32707;43.886;12.874;2022-07-05T06:05:50;5.47;;;2.20;;
46953;SDS011;32707;43.886;12.874;2022-07-05T06:08:16;8.60;;;1.05;;
46953;SDS011;32707;43.886;12.874;2022-07-05T06:10:43;5.07;;;1.55;;
46953;SDS011;32707;43.886;12.874;2022-07-05T06:13:09;4.28;;;1.83;;
46953;SDS011;32707;43.886;12.874;2022-07-05T06:15:37;4.30;;;1.98;;
46953;SDS011;32707;43.886;12.874;2022-07-05T06:18:03;5.13;;;1.45;;
46953;SDS011;32707;43.886;12.874;2022-07-05T06:20:31;9.63;;;1.45;;
46953;SDS011;32707;43.886;12.874;2022-07-05T06:22:58;14.27;;;1.88;;
46953;SDS011;32707;43.886;12.874;2022-07-05T06:25:25;2.97;;;1.75;;
46953;SDS011;32707;43.886;12.874;2022-07-05T06:27:52;6.65;;;2.05;;
46953;SDS011;32707;43.886;12.874;2022-07-05T06:30:22;7.57;;;1.95;;
46953;SDS011;32707;43.886;12.874;2022-07-05T06:32:50;4.53;;;1.50;;
46953;SDS011;32707;43.886;12.874;2022-07-05T06:35:16;5.57;;;1.50;;
46953;SDS011;32707;43.886;12.874;2022-07-05T06:37:52;6.60;;;1.35;;
46953;SDS011;32707;43.886;12.874;2022-07-05T06:40:20;3.20;;;1.30;;
46953;SDS011;32707;43.886;12.874;2022-07-05T06:42:48;4.85;;;1.67;;
46953;SDS011;32707;43.886;12.874;2022-07-05T06:45:14;3.53;;;1.25;;
46953;SDS011;32707;43.886;12.874;2022-07-05T06:47:41;2.90;;;1.20;;
46953;SDS011;32707;43.886;12.874;2022-07-05T06:50:06;4.68;;;1.30;;
46953;SDS011;32707;43.886;12.874;2022-07-05T06:52:32;14.43;;;1.63;;
46953;SDS011;32707;43.886;12.874;2022-07-05T06:54:58;9.70;;;1.60;;
46953;SDS011;32707;43.886;12.874;2022-07-05T06:57:24;12.15;;;1.20;;
46953;SDS011;32707;43.886;12.874;2022-07-05T06:59:51;4.47;;;1.15;;
46953;SDS011;32707;43.886;12.874;2022-07-05T07:02:17;2.97;;;1.42;;
46953;SDS011;32707;43.886;12.874;2022-07-05T07:04:44;5.15;;;1.58;;
46953;SDS011;32707;43.886;12.874;2022-07-05T07:07:09;15.85;;;1.58;;
46953;SDS011;32707;43.886;12.874;2022-07-05T07:09:57;2.47;;;1.35;;
46953;SDS011;32707;43.886;12.874;2022-07-05T07:12:28;5.75;;;1.40;;
46953;SDS011;32707;43.886;12.874;2022-07-05T07:14:54;7.35;;;2.00;;
46953;SDS011;32707;43.886;12.874;2022-07-05T07:17:21;3.50;;;1.55;;
46953;SDS011;32707;43.886;12.874;2022-07-05T07:19:49;9.40;;;1.67;;
46953;SDS011;32707;43.886;12.874;2022-07-05T07:22:14;4.68;;;1.27;;
46953;SDS011;32707;43.886;12.874;2022-07-05T07:24:40;23.13;;;1.63;;
46953;SDS011;32707;43.886;12.874;2022-07-05T07:27:05;6.57;;;2.22;;
46953;SDS011;32707;43.886;12.874;2022-07-05T07:29:36;4.55;;;1.42;;
46953;SDS011;32707;43.886;12.874;2022-07-05T07:32:03;11.77;;;1.63;;
46953;SDS011;32707;43.886;12.874;2022-07-05T07:34:30;10.07;;;1.60;;
46953;SDS011;32707;43.886;12.874;2022-07-05T07:36:56;4.18;;;1.70;;
46953;SDS011;32707;43.886;12.874;2022-07-05T07:39:25;15.52;;;1.88;;
46953;SDS011;32707;43.886;12.874;2022-07-05T07:41:51;8.00;;;1.25;;
46953;SDS011;32707;43.886;12.874;2022-07-05T07:44:17;4.45;;;1.10;;
46953;SDS011;32707;43.886;12.874;2022-07-05T07:46:43;5.85;;;1.48;;
46953;SDS011;32707;43.886;12.874;2022-07-05T07:49:09;2.67;;;1.48;;
46953;SDS011;32707;43.886;12.874;2022-07-05T07:51:36;1.75;;;0.98;;
46953;SDS011;32707;43.886;12.874;2022-07-05T07:54:01;11.77;;;1.30;;
46953;SDS011;32707;43.886;12.874;2022-07-05T07:56:27;3.78;;;1.40;;
46953;SDS011;32707;43.886;12.874;2022-07-05T07:58:53;3.75;;;1.52;;
46953;SDS011;32707;43.886;12.874;2022-07-05T08:01:18;8.38;;;1.83;;
46953;SDS011;32707;43.886;12.874;2022-07-05T08:03:45;5.15;;;1.38;;
46953;SDS011;32707;43.886;12.874;2022-07-05T08:06:11;11.05;;;1.58;;
46953;SDS011;32707;43.886;12.874;2022-07-05T08:08:37;4.55;;;1.20;;
46953;SDS011;32707;43.886;12.874;2022-07-05T08:11:04;3.95;;;1.02;;
46953;SDS011;32707;43.886;12.874;2022-07-05T08:13:31;2.95;;;0.95;;
46953;SDS011;32707;43.886;12.874;2022-07-05T08:15:57;1.15;;;1.05;;
46953;SDS011;32707;43.886;12.874;2022-07-05T08:18:23;15.40;;;1.77;;
46953;SDS011;32707;43.886;12.874;2022-07-05T08:21:08;3.15;;;1.20;;
46953;SDS011;32707;43.886;12.874;2022-07-05T08:23:53;10.13;;;1.42;;
46953;SDS011;32707;43.886;12.874;2022-07-05T08:26:21;6.22;;;1.25;;
46953;SDS011;32707;43.886;12.874;2022-07-05T08:28:47;1.30;;;1.15;;
46953;SDS011;32707;43.886;12.874;2022-07-05T08:31:13;9.48;;;0.95;;
46953;SDS011;32707;43.886;12.874;2022-07-05T08:33:39;3.03;;;0.80;;
46953;SDS011;32707;43.886;12.874;2022-07-05T08:36:04;4.57;;;1.23;;
46953;SDS011;32707;43.886;12.874;2022-07-05T08:38:30;2.15;;;0.85;;
46953;SDS011;32707;43.886;12.874;2022-07-05T08:40:56;3.30;;;1.05;;
46953;SDS011;32707;43.886;12.874;2022-07-05T08:43:22;5.30;;;1.23;;
46953;SDS011;32707;43.886;12.874;2022-07-05T08:45:52;9.55;;;1.20;;
46953;SDS011;32707;43.886;12.874;2022-07-05T08:48:19;7.13;;;1.20;;
46953;SDS011;32707;43.886;12.874;2022-07-05T08:50:46;5.97;;;1.17;;
46953;SDS011;32707;43.886;12.874;2022-07-05T08:53:23;13.23;;;1.75;;
46953;SDS011;32707;43.886;12.874;2022-07-05T08:55:49;6.45;;;1.65;;
46953;SDS011;32707;43.886;12.874;2022-07-05T08:58:15;2.65;;;1.13;;
46953;SDS011;32707;43.886;12.874;2022-07-05T09:00:42;7.30;;;1.73;;
46953;SDS011;32707;43.886;12.874;2022-07-05T09:03:08;4.82;;;1.38;;
46953;SDS011;32707;43.886;12.874;2022-07-05T09:05:34;10.93;;;1.60;;
46953;SDS011;32707;43.886;12.874;2022-07-05T09:08:13;13.38;;;2.00;;
46953;SDS011;32707;43.886;12.874;2022-07-05T09:10:42;12.50;;;1.45;;
46953;SDS011;32707;43.886;12.874;2022-07-05T09:13:08;1.27;;;1.10;;
46953;SDS011;32707;43.886;12.874;2022-07-05T09:15:33;1.40;;;1.30;;
46953;SDS011;32707;43.886;12.874;2022-07-05T09:17:59;2.13;;;1.17;;
46953;SDS011;32707;43.886;12.874;2022-07-05T09:20:25;2.47;;;1.48;;
46953;SDS011;32707;43.886;12.874;2022-07-05T09:22:53;2.45;;;1.63;;
46953;SDS011;32707;43.886;12.874;2022-07-05T09:27:59;2.45;;;1.60;;
46953;SDS011;32707;43.886;12.874;2022-07-05T09:35:31;5.65;;;2.38;;
46953;SDS011;32707;43.886;12.874;2022-07-05T09:37:58;5.45;;;1.45;;
46953;SDS011;32707;43.886;12.874;2022-07-05T09:40:24;12.43;;;1.65;;
46953;SDS011;32707;43.886;12.874;2022-07-05T09:42:49;6.72;;;1.67;;
46953;SDS011;32707;43.886;12.874;2022-07-05T09:45:21;3.63;;;1.40;;
46953;SDS011;32707;43.886;12.874;2022-07-05T09:47:50;2.53;;;1.48;;
46953;SDS011;32707;43.886;12.874;2022-07-05T09:50:35;8.38;;;1.50;;
46953;SDS011;32707;43.886;12.874;2022-07-05T09:53:01;1.95;;;1.05;;
46953;SDS011;32707;43.886;12.874;2022-07-05T09:55:30;10.75;;;1.90;;
46953;SDS011;32707;43.886;12.874;2022-07-05T09:57:56;4.32;;;1.60;;
46953;SDS011;32707;43.886;12.874;2022-07-05T10:00:22;3.88;;;1.30;;
46953;SDS011;32707;43.886;12.874;2022-07-05T10:05:14;1.90;;;1.33;;
46953;SDS011;32707;43.886;12.874;2022-07-05T10:07:48;8.90;;;1.20;;
46953;SDS011;32707;43.886;12.874;2022-07-05T10:10:16;5.18;;;1.67;;
46953;SDS011;32707;43.886;12.874;2022-07-05T10:12:45;5.47;;;1.60;;
46953;SDS011;32707;43.886;12.874;2022-07-05T10:15:13;4.25;;;1.17;;
46953;SDS011;32707;43.886;12.874;2022-07-05T10:17:44;3.05;;;1.90;;
46953;SDS011;32707;43.886;12.874;2022-07-05T10:20:24;2.97;;;1.35;;
46953;SDS011;32707;43.886;12.874;2022-07-05T10:22:49;6.40;;;1.48;;
46953;SDS011;32707;43.886;12.874;2022-07-05T10:25:16;3.15;;;1.50;;
46953;SDS011;32707;43.886;12.874;2022-07-05T10:27:42;4.78;;;1.42;;
46953;SDS011;32707;43.886;12.874;2022-07-05T10:30:08;6.03;;;1.23;;
46953;SDS011;32707;43.886;12.874;2022-07-05T10:32:35;7.38;;;1.35;;
46953;SDS011;32707;43.886;12.874;2022-07-05T10:35:03;2.20;;;1.35;;
46953;SDS011;32707;43.886;12.874;2022-07-05T10:37:30;9.10;;;1.50;;
46953;SDS011;32707;43.886;12.874;2022-07-05T10:39:57;12.77;;;2.03;;
46953;SDS011;32707;43.886;12.874;2022-07-05T10:42:25;11.35;;;2.00;;
46953;SDS011;32707;43.886;12.874;2022-07-05T10:44:53;5.38;;;1.75;;
46953;SDS011;32707;43.886;12.874;2022-07-05T10:47:18;5.80;;;1.42;;
46953;SDS011;32707;43.886;12.874;2022-07-05T10:49:44;3.83;;;1.30;;
46953;SDS011;32707;43.886;12.874;2022-07-05T10:52:24;2.63;;;1.50;;
46953;SDS011;32707;43.886;12.874;2022-07-05T11:00:41;12.52;;;4.40;;
46953;SDS011;32707;43.886;12.874;2022-07-05T11:03:10;8.63;;;2.35;;
46953;SDS011;32707;43.886;12.874;2022-07-05T11:06:02;12.32;;;2.55;;
46953;SDS011;32707;43.886;12.874;2022-07-05T11:08:28;12.38;;;1.52;;
46953;SDS011;32707;43.886;12.874;2022-07-05T11:11:08;6.00;;;2.00;;
46953;SDS011;32707;43.886;12.874;2022-07-05T11:13:41;2.30;;;1.52;;
46953;SDS011;32707;43.886;12.874;2022-07-05T11:18:51;8.27;;;1.67;;
46953;SDS011;32707;43.886;12.874;2022-07-05T11:23:44;6.82;;;1.85;;
46953;SDS011;32707;43.886;12.874;2022-07-05T11:26:11;1.42;;;1.33;;
46953;SDS011;32707;43.886;12.874;2022-07-05T11:28:41;5.97;;;1.55;;
46953;SDS011;32707;43.886;12.874;2022-07-05T11:31:08;7.88;;;1.58;;
46953;SDS011;32707;43.886;12.874;2022-07-05T11:33:35;3.65;;;1.90;;
46953;SDS011;32707;43.886;12.874;2022-07-05T11:36:01;3.47;;;1.33;;
46953;SDS011;32707;43.886;12.874;2022-07-05T11:38:29;2.90;;;1.52;;
46953;SDS011;32707;43.886;12.874;2022-07-05T11:41:11;4.68;;;1.45;;
46953;SDS011;32707;43.886;12.874;2022-07-05T11:43:43;12.02;;;2.15;;
46953;SDS011;32707;43.886;12.874;2022-07-05T11:46:19;9.98;;;1.65;;
46953;SDS011;32707;43.886;12.874;2022-07-05T11:48:46;6.85;;;1.50;;
46953;SDS011;32707;43.886;12.874;2022-07-05T11:51:14;10.00;;;1.88;;
46953;SDS011;32707;43.886;12.874;2022-07-05T11:53:39;3.80;;;1.48;;
46953;SDS011;32707;43.886;12.874;2022-07-05T11:56:06;3.00;;;1.20;;
46953;SDS011;32707;43.886;12.874;2022-07-05T11:58:32;2.35;;;1.40;;
46953;SDS011;32707;43.886;12.874;2022-07-05T12:00:58;4.53;;;1.85;;
46953;SDS011;32707;43.886;12.874;2022-07-05T12:03:24;6.80;;;1.75;;
46953;SDS011;32707;43.886;12.874;2022-07-05T12:05:50;5.90;;;1.77;;
46953;SDS011;32707;43.886;12.874;2022-07-05T12:08:26;5.43;;;1.50;;
46953;SDS011;32707;43.886;12.874;2022-07-05T12:10:51;11.05;;;1.50;;
46953;SDS011;32707;43.886;12.874;2022-07-05T12:16:11;9.00;;;1.35;;
46953;SDS011;32707;43.886;12.874;2022-07-05T12:18:49;1.67;;;1.25;;
46953;SDS011;32707;43.886;12.874;2022-07-05T12:21:20;8.10;;;2.40;;
46953;SDS011;32707;43.886;12.874;2022-07-05T12:23:47;14.02;;;1.75;;
46953;SDS011;32707;43.886;12.874;2022-07-05T12:26:14;6.53;;;1.92;;
46953;SDS011;32707;43.886;12.874;2022-07-05T12:28:41;7.22;;;1.83;;
46953;SDS011;32707;43.886;12.874;2022-07-05T12:31:14;2.22;;;1.20;;
46953;SDS011;32707;43.886;12.874;2022-07-05T12:33:46;7.75;;;1.50;;
46953;SDS011;32707;43.886;12.874;2022-07-05T12:36:13;10.13;;;1.70;;
46953;SDS011;32707;43.886;12.874;2022-07-05T12:38:39;3.80;;;1.60;;
46953;SDS011;32707;43.886;12.874;2022-07-05T12:41:06;7.07;;;1.90;;
46953;SDS011;32707;43.886;12.874;2022-07-05T12:43:31;1.30;;;1.20;;
46953;SDS011;32707;43.886;12.874;2022-07-05T12:46:04;2.20;;;1.30;;
46953;SDS011;32707;43.886;12.874;2022-07-05T12:48:32;3.65;;;1.42;;
46953;SDS011;32707;43.886;12.874;2022-07-05T12:51:03;5.22;;;1.25;;
46953;SDS011;32707;43.886;12.874;2022-07-05T12:53:33;1.77;;;1.27;;
46953;SDS011;32707;43.886;12.874;2022-07-05T12:56:27;3.65;;;1.30;;
46953;SDS011;32707;43.886;12.874;2022-07-05T12:59:11;4.85;;;1.42;;
46953;SDS011;32707;43.886;12.874;2022-07-05T13:01:37;1.90;;;1.10;;
46953;SDS011;32707;43.886;12.874;2022-07-05T13:04:11;3.05;;;1.00;;
46953;SDS011;32707;43.886;12.874;2022-07-05T13:06:50;2.22;;;1.23;;
46953;SDS011;32707;43.886;12.874;2022-07-05T13:12:32;2.33;;;1.10;;
46953;SDS011;32707;43.886;12.874;2022-07-05T13:14:52;1.38;;;1.20;;
46953;SDS011;32707;43.886;12.874;2022-07-05T13:17:21;4.38;;;1.23;;
46953;SDS011;32707;43.886;12.874;2022-07-05T13:19:50;10.52;;;1.33;;
46953;SDS011;32707;43.886;12.874;2022-07-05T13:22:17;3.35;;;1.70;;
46953;SDS011;32707;43.886;12.874;2022-07-05T13:24:43;1.77;;;0.77;;
46953;SDS011;32707;43.886;12.874;2022-07-05T13:27:09;12.70;;;1.55;;
46953;SDS011;32707;43.886;12.874;2022-07-05T13:29:36;1.38;;;0.88;;
46953;SDS011;32707;43.886;12.874;2022-07-05T13:32:02;0.77;;;0.75;;
46953;SDS011;32707;43.886;12.874;2022-07-05T13:34:29;5.65;;;1.00;;
46953;SDS011;32707;43.886;12.874;2022-07-05T13:36:56;2.35;;;0.98;;
46953;SDS011;32707;43.886;12.874;2022-07-05T13:39:22;11.05;;;1.30;;
46953;SDS011;32707;43.886;12.874;2022-07-05T13:41:51;2.55;;;1.00;;
46953;SDS011;32707;43.886;12.874;2022-07-05T13:44:18;1.63;;;0.88;;
46953;SDS011;32707;43.886;12.874;2022-07-05T13:46:44;4.28;;;0.98;;
46953;SDS011;32707;43.886;12.874;2022-07-05T13:49:10;4.68;;;0.82;;
46953;SDS011;32707;43.886;12.874;2022-07-05T13:51:36;5.93;;;0.95;;
46953;SDS011;32707;43.886;12.874;2022-07-05T13:54:02;1.95;;;0.80;;
46953;SDS011;32707;43.886;12.874;2022-07-05T13:56:28;1.38;;;0.80;;
46953;SDS011;32707;43.886;12.874;2022-07-05T13:58:54;3.55;;;0.85;;
46953;SDS011;32707;43.886;12.874;2022-07-05T14:01:21;0.90;;;0.57;;
46953;SDS011;32707;43.886;12.874;2022-07-05T14:03:54;4.70;;;1.00;;
46953;SDS011;32707;43.886;12.874;2022-07-05T14:06:25;1.48;;;0.68;;
46953;SDS011;32707;43.886;12.874;2022-07-05T14:08:51;1.75;;;0.80;;
46953;SDS011;32707;43.886;12.874;2022-07-05T14:11:18;3.10;;;1.10;;
46953;SDS011;32707;43.886;12.874;2022-07-05T14:13:43;2.75;;;0.88;;
46953;SDS011;32707;43.886;12.874;2022-07-05T14:16:09;2.03;;;0.85;;
46953;SDS011;32707;43.886;12.874;2022-07-05T14:18:35;1.92;;;0.77;;
46953;SDS011;32707;43.886;12.874;2022-07-05T14:21:00;1.45;;;0.60;;
46953;SDS011;32707;43.886;12.874;2022-07-05T14:23:26;4.78;;;1.30;;
46953;SDS011;32707;43.886;12.874;2022-07-05T14:25:52;1.17;;;0.82;;
46953;SDS011;32707;43.886;12.874;2022-07-05T14:28:17;9.38;;;1.15;;
46953;SDS011;32707;43.886;12.874;2022-07-05T14:34:07;1.52;;;0.88;;
46953;SDS011;32707;43.886;12.874;2022-07-05T14:36:33;9.07;;;0.80;;
46953;SDS011;32707;43.886;12.874;2022-07-05T14:38:58;1.60;;;0.80;;
46953;SDS011;32707;43.886;12.874;2022-07-05T14:41:26;5.57;;;1.25;;
46953;SDS011;32707;43.886;12.874;2022-07-05T14:43:52;1.60;;;0.70;;
46953;SDS011;32707;43.886;12.874;2022-07-05T14:46:19;3.55;;;0.95;;
46953;SDS011;32707;43.886;12.874;2022-07-05T14:48:45;4.25;;;1.10;;
46953;SDS011;32707;43.886;12.874;2022-07-05T14:51:11;2.28;;;0.93;;
46953;SDS011;32707;43.886;12.874;2022-07-05T14:53:36;1.15;;;0.90;;
46953;SDS011;32707;43.886;12.874;2022-07-05T14:56:02;5.43;;;1.50;;
46953;SDS011;32707;43.886;12.874;2022-07-05T14:58:28;1.23;;;0.90;;
46953;SDS011;32707;43.886;12.874;2022-07-05T15:01:00;7.28;;;0.65;;
46953;SDS011;32707;43.886;12.874;2022-07-05T15:03:25;3.58;;;0.77;;